createdAt,value
2019-03-09T00:02:16.448Z,7.93
2019-03-09T00:04:40.856Z,8.04
2019-03-09T00:07:05.426Z,8.13
2019-03-09T00:09:29.827Z,8.38
2019-03-09T00:11:54.731Z,8.08
2019-03-09T00:14:19.140Z,8.12
2019-03-09T00:16:43.633Z,8.14
2019-03-09T00:19:08.173Z,8.11
2019-03-09T00:21:32.602Z,8.36
2019-03-09T00:24:01.379Z,8.42
2019-03-09T00:26:36.177Z,8.23
2019-03-09T00:29:02.229Z,8.22
2019-03-09T00:31:28.296Z,7.77
2019-03-09T00:33:52.707Z,7.72
2019-03-09T00:36:17.095Z,7.92
2019-03-09T00:38:41.522Z,8.33
2019-03-09T00:41:05.997Z,8.10
2019-03-09T00:43:30.487Z,7.80
2019-03-09T00:45:55.076Z,7.80
2019-03-09T00:48:19.503Z,8.32
2019-03-09T00:50:43.911Z,8.52
2019-03-09T00:53:08.345Z,8.36
2019-03-09T00:55:32.759Z,8.59
2019-03-09T00:57:57.201Z,8.61
2019-03-09T01:00:21.748Z,8.48
2019-03-09T01:02:46.308Z,8.39
2019-03-09T01:05:11.066Z,8.49
2019-03-09T01:07:35.548Z,8.23
2019-03-09T01:09:59.943Z,8.12
2019-03-09T01:12:24.438Z,8.12
2019-03-09T01:14:48.895Z,7.86
2019-03-09T01:17:13.365Z,8.56
2019-03-09T01:19:37.783Z,8.26
2019-03-09T01:22:02.182Z,8.46
2019-03-09T01:24:26.618Z,8.34
2019-03-09T01:26:51.097Z,8.10
2019-03-09T01:29:15.596Z,8.15
2019-03-09T01:31:39.964Z,8.02
2019-03-09T01:34:04.629Z,8.31
2019-03-09T01:36:29.023Z,8.44
2019-03-09T01:38:53.651Z,7.88
2019-03-09T01:41:18.107Z,7.82
2019-03-09T01:43:42.517Z,7.99
2019-03-09T01:46:06.992Z,8.12
2019-03-09T01:48:31.550Z,7.88
2019-03-09T01:50:55.954Z,7.98
2019-03-09T01:53:20.444Z,7.95
2019-03-09T01:55:44.945Z,7.89
2019-03-09T01:58:09.338Z,7.91
2019-03-09T02:00:33.784Z,7.97
2019-03-09T02:02:58.164Z,8.13
2019-03-09T02:05:22.578Z,7.88
2019-03-09T02:07:48.276Z,7.81
2019-03-09T02:10:15.040Z,8.04
2019-03-09T02:12:39.427Z,8.02
2019-03-09T02:15:06.462Z,8.13
2019-03-09T02:17:30.965Z,8.33
2019-03-09T02:19:56.975Z,8.05
2019-03-09T02:22:28.590Z,8.15
2019-03-09T02:24:53.050Z,8.10
2019-03-09T02:27:17.456Z,8.21
2019-03-09T02:29:41.938Z,8.29
2019-03-09T02:32:06.409Z,8.12
2019-03-09T02:34:30.911Z,8.10
2019-03-09T02:36:55.455Z,8.13
2019-03-09T02:39:21.523Z,8.23
2019-03-09T02:41:45.927Z,8.30
2019-03-09T02:44:10.414Z,8.08
2019-03-09T02:46:34.812Z,8.34
2019-03-09T02:48:59.226Z,8.16
2019-03-09T02:51:23.768Z,8.41
2019-03-09T02:53:48.167Z,8.25
2019-03-09T02:56:12.610Z,7.90
2019-03-09T02:58:36.980Z,8.18
2019-03-09T03:01:03.141Z,8.19
2019-03-09T03:03:27.527Z,8.08
2019-03-09T03:05:51.959Z,8.08
2019-03-09T03:08:16.367Z,7.94
2019-03-09T03:10:40.804Z,8.02
2019-03-09T03:13:05.205Z,8.20
2019-03-09T03:15:38.765Z,8.17
2019-03-09T03:18:03.307Z,8.34
2019-03-09T03:20:27.808Z,7.94
2019-03-09T03:22:52.278Z,8.32
2019-03-09T03:25:16.732Z,8.50
2019-03-09T03:27:41.129Z,8.31
2019-03-09T03:30:07.598Z,8.21
2019-03-09T03:32:33.656Z,8.07
2019-03-09T03:34:58.051Z,8.27
2019-03-09T03:37:22.472Z,8.22
2019-03-09T03:39:46.869Z,8.39
2019-03-09T03:42:11.315Z,7.77
2019-03-09T03:44:37.410Z,7.77
2019-03-09T03:47:01.999Z,7.97
2019-03-09T03:49:26.522Z,8.00
2019-03-09T03:51:50.957Z,7.81
2019-03-09T03:54:15.428Z,7.79
2019-03-09T03:56:39.973Z,7.65
2019-03-09T03:59:04.563Z,7.77
2019-03-09T04:01:30.506Z,7.95
2019-03-09T04:03:55.111Z,7.89
2019-03-09T04:06:19.638Z,8.01
2019-03-09T04:08:44.599Z,7.69
2019-03-09T04:11:09.140Z,7.77
2019-03-09T04:13:33.641Z,7.50
2019-03-09T04:15:58.052Z,7.55
2019-03-09T04:18:22.475Z,7.37
2019-03-09T04:20:46.952Z,7.55
2019-03-09T04:23:11.388Z,7.44
2019-03-09T04:25:35.870Z,7.31
2019-03-09T04:28:00.269Z,7.07
2019-03-09T04:30:24.677Z,7.14
2019-03-09T04:32:49.207Z,7.08
2019-03-09T04:35:14.279Z,6.99
2019-03-09T04:37:38.709Z,7.14
2019-03-09T04:40:04.556Z,6.97
2019-03-09T04:45:27.244Z,7.02
2019-03-09T04:47:52.668Z,7.03
2019-03-09T04:50:17.136Z,6.97
2019-03-09T04:52:41.608Z,6.81
2019-03-09T04:55:07.571Z,7.01
2019-03-09T04:57:32.038Z,7.12
2019-03-09T04:59:56.468Z,6.97
2019-03-09T05:02:20.947Z,6.94
2019-03-09T05:04:46.675Z,7.23
2019-03-09T05:07:12.649Z,7.10
2019-03-09T05:09:56.676Z,7.10
2019-03-09T05:12:21.075Z,7.06
2019-03-09T05:14:45.511Z,6.62
2019-03-09T05:17:09.898Z,6.92
2019-03-09T05:19:34.334Z,6.82
2019-03-09T05:21:58.722Z,7.00
2019-03-09T05:24:23.154Z,6.94
2019-03-09T05:26:47.555Z,6.93
2019-03-09T05:29:11.998Z,7.01
2019-03-09T05:31:36.380Z,7.19
2019-03-09T05:34:00.793Z,6.99
2019-03-09T05:36:25.206Z,6.81
2019-03-09T05:38:51.182Z,6.84
2019-03-09T05:41:15.898Z,7.15
2019-03-09T05:43:40.299Z,6.88
2019-03-09T05:46:04.777Z,6.92
2019-03-09T05:48:29.185Z,6.89
2019-03-09T05:50:53.621Z,6.82
2019-03-09T05:53:19.666Z,6.90
2019-03-09T05:55:44.233Z,6.82
2019-03-09T05:58:08.642Z,7.02
2019-03-09T06:00:34.108Z,6.94
2019-03-09T06:02:58.572Z,6.88
2019-03-09T06:05:28.522Z,6.92
2019-03-09T06:07:52.921Z,7.08
2019-03-09T06:10:17.415Z,6.98
2019-03-09T06:12:41.853Z,6.89
2019-03-09T06:15:06.374Z,6.98
2019-03-09T06:17:30.866Z,6.90
2019-03-09T06:19:55.259Z,7.09
2019-03-09T06:22:19.684Z,7.15
2019-03-09T06:24:44.094Z,7.22
2019-03-09T06:27:08.525Z,7.28
2019-03-09T06:29:37.508Z,7.27
2019-03-09T06:32:33.811Z,7.25
2019-03-09T06:35:00.468Z,7.29
2019-03-09T06:37:26.525Z,7.29
2019-03-09T06:39:51.059Z,7.22
2019-03-09T06:42:19.133Z,7.26
2019-03-09T06:44:43.537Z,7.30
2019-03-09T06:47:08.021Z,7.38
2019-03-09T06:49:32.416Z,7.49
2019-03-09T06:51:56.848Z,7.48
2019-03-09T06:54:21.239Z,7.46
2019-03-09T06:56:45.678Z,7.55
2019-03-09T06:59:10.130Z,7.55
2019-03-09T07:01:34.523Z,7.48
2019-03-09T07:03:58.939Z,7.61
2019-03-09T07:06:23.402Z,7.49
2019-03-09T07:08:47.906Z,7.59
2019-03-09T07:11:12.297Z,7.63
2019-03-09T07:13:36.724Z,7.84
2019-03-09T07:16:01.118Z,7.88
2019-03-09T07:18:25.680Z,7.77
2019-03-09T07:20:50.146Z,7.82
2019-03-09T07:23:14.563Z,7.99
2019-03-09T07:25:38.962Z,7.94
2019-03-09T07:28:05.990Z,7.85
2019-03-09T07:30:30.623Z,7.99
2019-03-09T07:32:55.039Z,8.03
2019-03-09T07:35:19.460Z,7.91
2019-03-09T07:37:43.862Z,8.03
2019-03-09T07:40:11.224Z,7.95
2019-03-09T07:42:35.703Z,7.99
2019-03-09T07:45:00.172Z,8.02
2019-03-09T07:47:24.605Z,7.91
2019-03-09T07:49:49.051Z,7.99
2019-03-09T07:52:30.782Z,7.99
2019-03-09T07:54:55.203Z,8.09
2019-03-09T07:57:19.690Z,8.12
2019-03-09T07:59:44.128Z,8.12
2019-03-09T08:02:08.528Z,8.16
2019-03-09T08:04:32.974Z,8.38
2019-03-09T08:06:57.380Z,8.31
2019-03-09T08:09:21.875Z,8.50
2019-03-09T08:11:46.279Z,8.54
2019-03-09T08:14:10.771Z,8.43
2019-03-09T08:16:36.214Z,8.47
2019-03-09T08:19:00.653Z,8.38
2019-03-09T08:21:25.076Z,8.27
2019-03-09T08:23:49.453Z,8.48
2019-03-09T08:26:13.874Z,8.36
2019-03-09T08:28:38.298Z,8.51
2019-03-09T08:31:02.709Z,8.53
2019-03-09T08:33:27.118Z,8.50
2019-03-09T08:35:51.618Z,8.61
2019-03-09T08:38:28.627Z,8.48
2019-03-09T08:40:56.318Z,8.64
2019-03-09T08:43:21.790Z,8.68
2019-03-09T08:45:46.217Z,8.69
2019-03-09T08:48:10.679Z,8.62
2019-03-09T08:50:35.129Z,8.56
2019-03-09T08:52:59.697Z,8.78
2019-03-09T08:55:24.189Z,9.11
2019-03-09T08:57:48.719Z,8.99
2019-03-09T09:00:19.267Z,8.73
2019-03-09T09:02:43.678Z,8.74
2019-03-09T09:05:08.344Z,8.71
2019-03-09T09:07:32.759Z,8.76
2019-03-09T09:09:57.147Z,8.79
2019-03-09T09:12:21.639Z,8.79
2019-03-09T09:14:46.050Z,8.72
2019-03-09T09:17:10.554Z,8.96
2019-03-09T09:19:35.037Z,9.04
2019-03-09T09:21:59.539Z,8.98
2019-03-09T09:24:23.947Z,9.23
2019-03-09T09:26:48.405Z,9.16
2019-03-09T09:29:12.801Z,8.90
2019-03-09T09:31:37.361Z,9.06
2019-03-09T09:34:01.756Z,9.18
2019-03-09T09:36:26.266Z,9.19
2019-03-09T09:38:50.670Z,9.13
2019-03-09T09:41:15.234Z,9.06
2019-03-09T09:43:39.645Z,8.93
2019-03-09T09:46:04.115Z,8.68
2019-03-09T09:48:28.613Z,9.00
2019-03-09T09:50:53.088Z,9.24
2019-03-09T09:53:17.585Z,9.46
2019-03-09T09:55:41.991Z,9.18
2019-03-09T09:58:06.419Z,9.20
2019-03-09T10:00:30.919Z,9.32
2019-03-09T10:02:55.328Z,9.58
2019-03-09T10:05:19.885Z,9.33
2019-03-09T10:07:44.502Z,9.33
2019-03-09T10:10:19.858Z,9.47
2019-03-09T10:12:44.277Z,9.81
2019-03-09T10:15:30.365Z,9.65
2019-03-09T10:17:54.899Z,9.42
2019-03-09T10:20:20.407Z,9.43
2019-03-09T10:22:44.837Z,9.42
2019-03-09T10:25:10.576Z,9.30
2019-03-09T10:27:35.016Z,9.37
2019-03-09T10:29:59.497Z,9.61
2019-03-09T10:32:23.916Z,9.71
2019-03-09T10:34:48.373Z,9.61
2019-03-09T10:37:12.844Z,9.72
2019-03-09T10:39:37.494Z,9.86
2019-03-09T10:42:01.978Z,10.01
2019-03-09T10:44:26.442Z,10.40
2019-03-09T10:46:50.866Z,10.32
2019-03-09T10:49:15.331Z,10.73
2019-03-09T10:51:39.893Z,10.74
2019-03-09T10:54:04.425Z,10.77
2019-03-09T10:56:28.855Z,10.87
2019-03-09T10:58:53.359Z,10.87
2019-03-09T11:01:17.838Z,11.27
2019-03-09T11:03:42.360Z,11.10
2019-03-09T11:06:06.907Z,11.00
2019-03-09T11:08:31.300Z,11.01
2019-03-09T11:10:55.802Z,10.90
2019-03-09T11:13:20.215Z,10.82
2019-03-09T11:15:44.656Z,10.95
2019-03-09T11:18:09.170Z,10.89
2019-03-09T11:20:33.592Z,11.17
2019-03-09T11:22:57.989Z,10.57
2019-03-09T11:25:22.466Z,10.69
2019-03-09T11:27:46.949Z,10.50
2019-03-09T11:30:16.970Z,10.65
2019-03-09T11:32:41.381Z,10.58
2019-03-09T11:35:06.809Z,10.76
2019-03-09T11:37:31.210Z,10.28
2019-03-09T11:39:55.722Z,10.43
2019-03-09T11:42:20.122Z,10.68
2019-03-09T11:44:44.639Z,10.98
2019-03-09T11:47:09.130Z,10.89
2019-03-09T11:49:33.548Z,10.66
2019-03-09T11:51:58.036Z,10.89
2019-03-09T11:54:22.442Z,10.94
2019-03-09T11:56:46.874Z,11.20
2019-03-09T11:59:11.284Z,11.25
2019-03-09T12:01:35.738Z,11.25
2019-03-09T12:04:00.153Z,11.18
2019-03-09T12:06:24.581Z,12.03
2019-03-09T12:08:48.995Z,12.27
2019-03-09T12:11:13.408Z,13.46
2019-03-09T12:13:37.889Z,13.53
2019-03-09T12:16:02.416Z,14.95
2019-03-09T12:18:26.818Z,16.11
2019-03-09T12:20:51.231Z,16.09
2019-03-09T12:23:18.380Z,16.23
2019-03-09T12:25:42.799Z,16.42
2019-03-09T12:28:07.226Z,17.33
2019-03-09T12:30:31.634Z,18.02
2019-03-09T12:32:56.052Z,14.12
2019-03-09T12:35:20.540Z,12.96
2019-03-09T12:37:44.977Z,14.65
2019-03-09T12:40:12.425Z,12.59
2019-03-09T12:42:36.936Z,12.17
2019-03-09T12:45:01.356Z,11.66
2019-03-09T12:47:25.794Z,11.86
2019-03-09T12:49:50.224Z,11.53
2019-03-09T12:52:14.696Z,11.73
2019-03-09T12:54:39.128Z,11.68
2019-03-09T12:57:03.596Z,12.63
2019-03-09T12:59:28.024Z,12.01
2019-03-09T13:01:52.429Z,11.66
2019-03-09T13:04:16.868Z,11.56
2019-03-09T13:06:41.409Z,11.96
2019-03-09T13:09:05.981Z,11.91
2019-03-09T13:11:30.381Z,11.65
2019-03-09T13:13:54.812Z,11.86
2019-03-09T13:16:19.371Z,11.68
2019-03-09T13:18:43.854Z,11.66
2019-03-09T13:21:08.256Z,11.52
2019-03-09T13:23:32.662Z,11.60
2019-03-09T13:25:57.097Z,11.57
2019-03-09T13:28:21.504Z,11.59
2019-03-09T13:30:46.040Z,12.56
2019-03-09T13:33:10.600Z,13.32
2019-03-09T13:35:35.098Z,15.25
2019-03-09T13:37:59.508Z,14.57
2019-03-09T13:40:23.945Z,13.46
2019-03-09T13:42:48.354Z,12.03
2019-03-09T13:45:15.835Z,11.80
2019-03-09T13:47:40.232Z,11.62
2019-03-09T13:50:07.287Z,11.71
2019-03-09T13:52:31.758Z,11.81
2019-03-09T13:54:56.324Z,11.92
2019-03-09T13:57:20.734Z,12.07
2019-03-09T13:59:45.158Z,13.00
2019-03-09T14:02:09.568Z,14.36
2019-03-09T14:04:33.987Z,15.01
2019-03-09T14:06:58.399Z,14.70
2019-03-09T14:09:22.824Z,13.45
2019-03-09T14:11:47.301Z,13.47
2019-03-09T14:14:12.078Z,13.61
2019-03-09T14:16:36.717Z,13.47
2019-03-09T14:19:01.120Z,14.79
2019-03-09T14:21:25.537Z,15.15
2019-03-09T14:23:49.933Z,14.95
2019-03-09T14:26:14.343Z,12.70
2019-03-09T14:28:38.772Z,12.34
2019-03-09T14:31:03.258Z,11.90
2019-03-09T14:33:28.891Z,11.74
2019-03-09T14:35:53.561Z,11.68
2019-03-09T14:38:17.961Z,11.67
2019-03-09T14:40:42.407Z,13.37
2019-03-09T14:43:06.891Z,11.98
2019-03-09T14:45:31.315Z,11.73
2019-03-09T14:47:55.861Z,13.00
2019-03-09T14:50:20.339Z,12.42
2019-03-09T14:52:44.740Z,12.12
2019-03-09T14:55:11.049Z,11.98
2019-03-09T14:57:35.532Z,11.73
2019-03-09T14:59:59.913Z,11.63
2019-03-09T15:02:24.404Z,14.39
2019-03-09T15:04:48.885Z,12.25
2019-03-09T15:07:13.321Z,12.03
2019-03-09T15:09:37.816Z,11.86
2019-03-09T15:12:02.286Z,12.60
2019-03-09T15:14:26.848Z,11.84
2019-03-09T15:16:51.284Z,11.60
2019-03-09T15:19:15.684Z,11.58
2019-03-09T15:21:40.131Z,11.55
2019-03-09T15:24:04.678Z,13.18
2019-03-09T15:26:29.233Z,13.93
2019-03-09T15:28:53.652Z,13.21
2019-03-09T15:31:18.082Z,11.85
2019-03-09T15:33:42.484Z,11.31
2019-03-09T15:36:07.007Z,11.15
2019-03-09T15:38:31.413Z,10.88
2019-03-09T15:40:55.895Z,11.08
2019-03-09T15:43:20.464Z,10.97
2019-03-09T15:45:44.949Z,10.93
2019-03-09T15:48:09.355Z,11.02
2019-03-09T15:50:33.840Z,11.07
2019-03-09T15:52:58.338Z,11.12
2019-03-09T15:55:22.742Z,11.28
2019-03-09T15:57:47.230Z,11.51
2019-03-09T16:00:19.650Z,10.89
2019-03-09T16:02:44.136Z,10.37
2019-03-09T16:05:08.590Z,9.52
2019-03-09T16:07:33.079Z,9.17
2019-03-09T16:09:57.493Z,9.15
2019-03-09T16:12:21.916Z,9.11
2019-03-09T16:14:46.327Z,8.51
2019-03-09T16:17:10.837Z,8.20
2019-03-09T16:19:35.386Z,8.25
2019-03-09T16:21:59.834Z,8.50
2019-03-09T16:24:25.560Z,8.60
2019-03-09T16:26:50.030Z,8.73
2019-03-09T16:29:14.504Z,8.67
2019-03-09T16:31:38.959Z,8.79
2019-03-09T16:34:03.353Z,8.51
2019-03-09T16:36:27.802Z,8.63
2019-03-09T16:38:52.204Z,8.70
2019-03-09T16:41:16.628Z,8.91
2019-03-09T16:43:41.054Z,8.71
2019-03-09T16:46:05.538Z,8.89
2019-03-09T16:48:29.973Z,9.18
2019-03-09T16:50:54.385Z,9.04
2019-03-09T16:53:18.807Z,8.78
2019-03-09T16:55:43.209Z,8.80
2019-03-09T16:58:07.710Z,8.65
2019-03-09T17:00:32.115Z,8.52
2019-03-09T17:02:56.635Z,8.66
2019-03-09T17:05:21.094Z,8.61
2019-03-09T17:07:45.486Z,8.81
2019-03-09T17:10:11.140Z,8.54
2019-03-09T17:12:35.687Z,8.72
2019-03-09T17:15:00.094Z,8.72
2019-03-09T17:17:24.557Z,8.53
2019-03-09T17:19:50.092Z,8.71
2019-03-09T17:22:14.455Z,8.78
2019-03-09T17:24:38.888Z,8.68
2019-03-09T17:27:03.287Z,8.34
2019-03-09T17:29:27.717Z,8.74
2019-03-09T17:31:52.133Z,8.59
2019-03-09T17:34:16.579Z,8.37
2019-03-09T17:36:40.984Z,8.21
2019-03-09T17:39:06.244Z,8.30
2019-03-09T17:41:30.665Z,8.10
2019-03-09T17:43:55.096Z,8.07
2019-03-09T17:46:19.558Z,7.94
2019-03-09T17:48:43.973Z,8.11
2019-03-09T17:51:08.444Z,8.12
2019-03-09T17:53:32.873Z,7.89
2019-03-09T17:55:57.350Z,7.98
2019-03-09T17:58:21.766Z,7.92
2019-03-09T18:00:47.431Z,7.91
2019-03-09T18:03:11.822Z,7.97
2019-03-09T18:05:36.251Z,7.97
2019-03-09T18:08:00.714Z,7.95
2019-03-09T18:10:36.888Z,7.93
2019-03-09T18:13:01.282Z,7.87
2019-03-09T18:15:25.707Z,7.92
2019-03-09T18:17:50.149Z,7.79
2019-03-09T18:20:14.647Z,7.97
2019-03-09T18:22:39.089Z,7.78
2019-03-09T18:25:04.057Z,7.44
2019-03-09T18:27:28.470Z,7.28
2019-03-09T18:29:52.870Z,7.12
2019-03-09T18:32:17.257Z,7.09
2019-03-09T18:34:41.701Z,6.94
2019-03-09T18:37:07.869Z,7.01
2019-03-09T18:39:32.470Z,6.97
2019-03-09T18:41:57.040Z,6.91
2019-03-09T18:44:21.566Z,6.86
2019-03-09T18:46:45.949Z,6.69
2019-03-09T18:49:10.386Z,6.81
2019-03-09T18:51:34.793Z,6.87
2019-03-09T18:53:59.197Z,6.65
2019-03-09T18:56:23.619Z,6.70
2019-03-09T18:58:48.015Z,6.80
2019-03-09T19:01:12.462Z,6.22
2019-03-09T19:03:37.018Z,6.44
2019-03-09T19:06:02.057Z,6.71
2019-03-09T19:08:26.550Z,6.42
2019-03-09T19:10:50.963Z,6.44
2019-03-09T19:13:15.354Z,6.74
2019-03-09T19:15:39.781Z,6.75
2019-03-09T19:18:04.241Z,6.58
2019-03-09T19:20:28.728Z,6.67
2019-03-09T19:22:53.134Z,6.13
2019-03-09T19:25:17.626Z,6.64
2019-03-09T19:27:42.103Z,6.13
2019-03-09T19:30:09.699Z,5.97
2019-03-09T19:32:34.104Z,6.18
2019-03-09T19:34:58.533Z,6.48
2019-03-09T19:37:22.978Z,6.04
2019-03-09T19:39:47.411Z,6.01
2019-03-09T19:42:11.818Z,6.65
2019-03-09T19:44:36.212Z,6.06
2019-03-09T19:47:00.647Z,6.40
2019-03-09T19:49:25.031Z,5.92
2019-03-09T19:51:49.440Z,5.47
2019-03-09T19:54:13.837Z,5.33
2019-03-09T19:56:38.259Z,5.73
2019-03-09T19:59:02.655Z,5.32
2019-03-09T20:01:27.133Z,5.17
2019-03-09T20:03:51.587Z,5.41
2019-03-09T20:06:16.153Z,5.71
2019-03-09T20:08:40.553Z,5.37
2019-03-09T20:11:05.141Z,5.23
2019-03-09T20:13:29.555Z,5.55
2019-03-09T20:15:54.032Z,5.19
2019-03-09T20:18:18.493Z,5.34
2019-03-09T20:20:42.923Z,5.21
2019-03-09T20:23:07.384Z,5.14
2019-03-09T20:25:31.807Z,5.27
2019-03-09T20:27:56.290Z,5.17
2019-03-09T20:30:22.280Z,5.18
2019-03-09T20:32:46.700Z,5.22
2019-03-09T20:35:11.236Z,5.15
2019-03-09T20:37:35.675Z,5.19
2019-03-09T20:40:00.085Z,5.20
2019-03-09T20:42:24.500Z,5.28
2019-03-09T20:44:48.904Z,5.43
2019-03-09T20:47:13.323Z,5.27
2019-03-09T20:49:37.740Z,5.33
2019-03-09T20:52:02.165Z,5.39
2019-03-09T20:54:26.569Z,5.38
2019-03-09T20:56:51.004Z,5.36
2019-03-09T20:59:15.402Z,5.36
2019-03-09T21:01:39.808Z,5.34
2019-03-09T21:04:04.298Z,5.47
2019-03-09T21:06:28.792Z,5.49
2019-03-09T21:08:53.218Z,5.68
2019-03-09T21:11:17.692Z,5.43
2019-03-09T21:13:42.104Z,5.34
2019-03-09T21:16:06.528Z,5.35
2019-03-09T21:18:30.938Z,5.29
2019-03-09T21:20:55.428Z,5.40
2019-03-09T21:23:19.956Z,5.33
2019-03-09T21:25:44.357Z,5.29
2019-03-09T21:28:08.925Z,5.31
2019-03-09T21:30:33.327Z,5.23
2019-03-09T21:32:57.859Z,5.22
2019-03-09T21:35:22.330Z,5.26
2019-03-09T21:37:46.832Z,5.34
2019-03-09T21:40:11.376Z,5.41
2019-03-09T21:42:35.856Z,5.27
2019-03-09T21:45:00.428Z,5.39
2019-03-09T21:47:24.917Z,5.29
2019-03-09T21:49:49.385Z,5.54
2019-03-09T21:52:13.788Z,5.57
2019-03-09T21:54:38.214Z,5.38
2019-03-09T21:57:02.608Z,5.55
2019-03-09T21:59:27.026Z,5.49
2019-03-09T22:01:51.511Z,5.46
2019-03-09T22:04:15.951Z,5.37
2019-03-09T22:06:40.361Z,5.42
2019-03-09T22:09:06.558Z,5.36
2019-03-09T22:11:30.977Z,5.26
2019-03-09T22:13:55.405Z,5.23
2019-03-09T22:16:19.805Z,5.23
2019-03-09T22:18:44.205Z,5.27
2019-03-09T22:21:08.721Z,5.32
2019-03-09T22:23:43.545Z,5.36
2019-03-09T22:25:59.259Z,5.30
2019-03-09T22:28:23.657Z,5.28
2019-03-09T22:30:48.082Z,5.11
2019-03-09T22:33:12.559Z,5.27
2019-03-09T22:35:37.043Z,5.28
2019-03-09T22:38:01.463Z,5.29
2019-03-09T22:40:25.905Z,5.38
2019-03-09T22:42:50.293Z,5.26
2019-03-09T22:45:15.738Z,5.22
2019-03-09T22:47:40.149Z,5.39
2019-03-09T22:50:06.914Z,5.50
2019-03-09T22:52:31.334Z,5.22
2019-03-09T22:54:55.721Z,5.29
2019-03-09T22:57:20.709Z,5.26
2019-03-09T22:59:45.125Z,5.32
2019-03-09T23:02:09.687Z,5.35
2019-03-09T23:04:34.128Z,5.19
2019-03-09T23:06:58.540Z,5.26
2019-03-09T23:09:23.009Z,5.37
2019-03-09T23:11:47.532Z,5.23
2019-03-09T23:14:11.930Z,5.39
2019-03-09T23:16:36.342Z,5.37
2019-03-09T23:19:00.742Z,5.33
2019-03-09T23:21:25.135Z,5.27
2019-03-09T23:23:49.541Z,5.23
2019-03-09T23:26:13.948Z,5.23
2019-03-09T23:28:48.326Z,5.38
2019-03-09T23:31:12.801Z,5.41
2019-03-09T23:33:37.292Z,5.26
2019-03-09T23:36:01.765Z,5.46
2019-03-09T23:38:26.164Z,5.46
2019-03-09T23:40:50.574Z,5.52
2019-03-09T23:43:14.985Z,5.30
2019-03-09T23:45:39.380Z,5.27
2019-03-09T23:48:03.939Z,5.21
2019-03-09T23:50:28.409Z,5.31
2019-03-09T23:52:52.963Z,5.36
2019-03-09T23:55:22.427Z,5.27
2019-03-09T23:57:44.997Z,5.26
